sensor_id;sensor_type;location;lat;lon;timestamp;temperature;humidity
5324;DHT22;2684;48.154;11.538;2022-08-06T00:01:55;17.80;99.90
5324;DHT22;2684;48.154;11.538;2022-08-06T00:04:23;17.80;99.90
5324;DHT22;2684;48.154;11.538;2022-08-06T00:06:50;17.90;99.90
5324;DHT22;2684;48.154;11.538;2022-08-06T00:09:17;17.90;99.90
5324;DHT22;2684;48.154;11.538;2022-08-06T00:11:44;17.90;99.90
5324;DHT22;2684;48.154;11.538;2022-08-06T00:14:10;17.80;99.90
5324;DHT22;2684;48.154;11.538;2022-08-06T00:16:37;17.90;99.90
5324;DHT22;2684;48.154;11.538;2022-08-06T00:19:04;17.90;99.90
5324;DHT22;2684;48.154;11.538;2022-08-06T00:21:33;17.90;99.90
5324;DHT22;2684;48.154;11.538;2022-08-06T00:24:00;17.90;99.90
5324;DHT22;2684;48.154;11.538;2022-08-06T00:26:27;17.90;99.90
5324;DHT22;2684;48.154;11.538;2022-08-06T00:28:54;17.90;99.90
5324;DHT22;2684;48.154;11.538;2022-08-06T00:31:21;17.90;99.90
5324;DHT22;2684;48.154;11.538;2022-08-06T00:33:48;17.90;99.90
5324;DHT22;2684;48.154;11.538;2022-08-06T00:36:15;17.90;99.90
5324;DHT22;2684;48.154;11.538;2022-08-06T00:38:43;17.90;99.90
5324;DHT22;2684;48.154;11.538;2022-08-06T00:41:10;17.90;99.90
5324;DHT22;2684;48.154;11.538;2022-08-06T00:43:40;17.90;99.90
5324;DHT22;2684;48.154;11.538;2022-08-06T00:46:07;17.90;99.90
5324;DHT22;2684;48.154;11.538;2022-08-06T00:48:34;17.90;99.90
5324;DHT22;2684;48.154;11.538;2022-08-06T00:51:01;17.90;99.90
5324;DHT22;2684;48.154;11.538;2022-08-06T00:53:28;17.90;99.90
5324;DHT22;2684;48.154;11.538;2022-08-06T00:55:57;17.90;99.90
5324;DHT22;2684;48.154;11.538;2022-08-06T00:58:24;17.90;99.90
5324;DHT22;2684;48.154;11.538;2022-08-06T01:00:50;17.90;99.90
5324;DHT22;2684;48.154;11.538;2022-08-06T01:03:17;17.80;99.90
5324;DHT22;2684;48.154;11.538;2022-08-06T01:05:44;17.80;99.90
5324;DHT22;2684;48.154;11.538;2022-08-06T01:08:11;17.80;99.90
5324;DHT22;2684;48.154;11.538;2022-08-06T01:10:38;17.70;99.90
5324;DHT22;2684;48.154;11.538;2022-08-06T01:13:06;17.70;99.90
5324;DHT22;2684;48.154;11.538;2022-08-06T01:15:34;17.70;99.90
5324;DHT22;2684;48.154;11.538;2022-08-06T01:18:06;17.60;99.90
5324;DHT22;2684;48.154;11.538;2022-08-06T01:20:42;17.60;99.90
5324;DHT22;2684;48.154;11.538;2022-08-06T01:23:38;17.50;99.90
5324;DHT22;2684;48.154;11.538;2022-08-06T01:26:38;17.50;99.90
5324;DHT22;2684;48.154;11.538;2022-08-06T01:29:11;17.40;99.90
5324;DHT22;2684;48.154;11.538;2022-08-06T01:31:45;17.30;99.90
5324;DHT22;2684;48.154;11.538;2022-08-06T01:34:18;17.30;99.90
5324;DHT22;2684;48.154;11.538;2022-08-06T01:36:51;17.30;99.90
5324;DHT22;2684;48.154;11.538;2022-08-06T01:39:21;17.30;99.90
5324;DHT22;2684;48.154;11.538;2022-08-06T01:41:51;17.30;99.90
5324;DHT22;2684;48.154;11.538;2022-08-06T01:44:23;17.20;99.90
5324;DHT22;2684;48.154;11.538;2022-08-06T01:46:54;17.20;99.90
5324;DHT22;2684;48.154;11.538;2022-08-06T01:49:24;17.20;99.90
5324;DHT22;2684;48.154;11.538;2022-08-06T01:51:53;17.20;99.90
5324;DHT22;2684;48.154;11.538;2022-08-06T01:54:22;17.30;99.90
5324;DHT22;2684;48.154;11.538;2022-08-06T01:56:52;17.30;99.90
5324;DHT22;2684;48.154;11.538;2022-08-06T01:59:23;17.30;99.90
5324;DHT22;2684;48.154;11.538;2022-08-06T02:01:53;17.30;99.90
5324;DHT22;2684;48.154;11.538;2022-08-06T02:04:26;17.30;99.90
5324;DHT22;2684;48.154;11.538;2022-08-06T02:06:53;17.30;99.90
5324;DHT22;2684;48.154;11.538;2022-08-06T02:09:22;17.30;99.90
5324;DHT22;2684;48.154;11.538;2022-08-06T02:11:53;17.30;99.90
5324;DHT22;2684;48.154;11.538;2022-08-06T02:14:23;17.30;99.90
5324;DHT22;2684;48.154;11.538;2022-08-06T02:16:52;17.30;99.90
5324;DHT22;2684;48.154;11.538;2022-08-06T02:19:22;17.30;99.90
5324;DHT22;2684;48.154;11.538;2022-08-06T02:21:51;17.40;99.90
5324;DHT22;2684;48.154;11.538;2022-08-06T02:24:19;17.40;99.90
5324;DHT22;2684;48.154;11.538;2022-08-06T02:26:49;17.50;99.90
5324;DHT22;2684;48.154;11.538;2022-08-06T02:29:17;17.50;99.90
5324;DHT22;2684;48.154;11.538;2022-08-06T02:31:47;17.60;99.90
5324;DHT22;2684;48.154;11.538;2022-08-06T02:34:14;17.60;99.90
5324;DHT22;2684;48.154;11.538;2022-08-06T02:36:43;17.60;99.90
5324;DHT22;2684;48.154;11.538;2022-08-06T02:39:15;17.60;99.90
5324;DHT22;2684;48.154;11.538;2022-08-06T02:41:48;17.60;99.90
5324;DHT22;2684;48.154;11.538;2022-08-06T02:44:20;17.60;99.90
5324;DHT22;2684;48.154;11.538;2022-08-06T02:46:52;17.60;99.90
5324;DHT22;2684;48.154;11.538;2022-08-06T02:49:26;17.60;99.90
5324;DHT22;2684;48.154;11.538;2022-08-06T02:51:55;17.60;99.90
5324;DHT22;2684;48.154;11.538;2022-08-06T02:54:30;17.60;99.90
5324;DHT22;2684;48.154;11.538;2022-08-06T02:57:01;17.60;99.90
5324;DHT22;2684;48.154;11.538;2022-08-06T02:59:31;17.60;99.90
5324;DHT22;2684;48.154;11.538;2022-08-06T03:02:03;17.60;99.90
5324;DHT22;2684;48.154;11.538;2022-08-06T03:04:32;17.60;99.90
5324;DHT22;2684;48.154;11.538;2022-08-06T03:07:03;17.60;99.90
5324;DHT22;2684;48.154;11.538;2022-08-06T03:09:32;17.60;99.90
5324;DHT22;2684;48.154;11.538;2022-08-06T03:11:59;17.60;99.90
5324;DHT22;2684;48.154;11.538;2022-08-06T03:14:27;17.60;99.90
5324;DHT22;2684;48.154;11.538;2022-08-06T03:16:55;17.60;99.90
5324;DHT22;2684;48.154;11.538;2022-08-06T03:19:24;17.60;99.90
5324;DHT22;2684;48.154;11.538;2022-08-06T03:21:52;17.60;99.90
5324;DHT22;2684;48.154;11.538;2022-08-06T03:24:20;17.60;99.90
5324;DHT22;2684;48.154;11.538;2022-08-06T03:26:49;17.70;99.90
5324;DHT22;2684;48.154;11.538;2022-08-06T03:29:17;17.70;99.90
5324;DHT22;2684;48.154;11.538;2022-08-06T03:31:44;17.70;99.90
5324;DHT22;2684;48.154;11.538;2022-08-06T03:34:12;17.70;99.90
5324;DHT22;2684;48.154;11.538;2022-08-06T03:36:40;17.70;99.90
5324;DHT22;2684;48.154;11.538;2022-08-06T03:39:09;17.70;99.90
5324;DHT22;2684;48.154;11.538;2022-08-06T03:41:38;17.70;99.90
5324;DHT22;2684;48.154;11.538;2022-08-06T03:44:06;17.80;99.90
5324;DHT22;2684;48.154;11.538;2022-08-06T03:46:37;17.80;99.90
5324;DHT22;2684;48.154;11.538;2022-08-06T03:49:10;17.80;99.90
5324;DHT22;2684;48.154;11.538;2022-08-06T03:51:41;17.80;99.90
5324;DHT22;2684;48.154;11.538;2022-08-06T03:54:09;17.80;99.90
5324;DHT22;2684;48.154;11.538;2022-08-06T03:56:38;17.80;99.90
5324;DHT22;2684;48.154;11.538;2022-08-06T03:59:06;17.80;99.90
5324;DHT22;2684;48.154;11.538;2022-08-06T04:01:36;17.80;99.90
5324;DHT22;2684;48.154;11.538;2022-08-06T04:04:05;17.80;99.90
5324;DHT22;2684;48.154;11.538;2022-08-06T04:06:32;17.80;99.90
5324;DHT22;2684;48.154;11.538;2022-08-06T04:09:01;17.80;99.90
5324;DHT22;2684;48.154;11.538;2022-08-06T04:11:29;17.80;99.90
5324;DHT22;2684;48.154;11.538;2022-08-06T04:13:58;17.80;99.90
5324;DHT22;2684;48.154;11.538;2022-08-06T04:16:25;17.80;99.90
5324;DHT22;2684;48.154;11.538;2022-08-06T04:18:53;17.80;99.90
5324;DHT22;2684;48.154;11.538;2022-08-06T04:21:23;17.80;99.90
5324;DHT22;2684;48.154;11.538;2022-08-06T04:23:51;17.80;99.90
5324;DHT22;2684;48.154;11.538;2022-08-06T04:26:22;17.70;99.90
5324;DHT22;2684;48.154;11.538;2022-08-06T04:28:51;17.60;99.90
5324;DHT22;2684;48.154;11.538;2022-08-06T04:31:19;17.50;99.90
5324;DHT22;2684;48.154;11.538;2022-08-06T04:33:47;17.40;99.90
5324;DHT22;2684;48.154;11.538;2022-08-06T04:36:15;17.30;99.90
5324;DHT22;2684;48.154;11.538;2022-08-06T04:38:42;17.30;99.90
5324;DHT22;2684;48.154;11.538;2022-08-06T04:41:11;17.30;99.90
5324;DHT22;2684;48.154;11.538;2022-08-06T04:43:40;17.30;99.90
5324;DHT22;2684;48.154;11.538;2022-08-06T04:46:08;17.30;99.90
5324;DHT22;2684;48.154;11.538;2022-08-06T04:48:35;17.30;99.90
5324;DHT22;2684;48.154;11.538;2022-08-06T04:51:03;17.20;99.90
5324;DHT22;2684;48.154;11.538;2022-08-06T04:53:36;17.20;99.90
5324;DHT22;2684;48.154;11.538;2022-08-06T04:56:04;17.20;99.90
5324;DHT22;2684;48.154;11.538;2022-08-06T04:58:31;17.10;99.90
5324;DHT22;2684;48.154;11.538;2022-08-06T05:01:00;17.00;99.90
5324;DHT22;2684;48.154;11.538;2022-08-06T05:03:27;17.00;99.90
5324;DHT22;2684;48.154;11.538;2022-08-06T05:06:00;16.90;99.90
5324;DHT22;2684;48.154;11.538;2022-08-06T05:08:29;16.80;99.90
5324;DHT22;2684;48.154;11.538;2022-08-06T05:11:02;16.80;99.90
5324;DHT22;2684;48.154;11.538;2022-08-06T05:13:35;16.70;99.90
5324;DHT22;2684;48.154;11.538;2022-08-06T05:16:09;16.60;99.90
5324;DHT22;2684;48.154;11.538;2022-08-06T05:18:38;16.60;99.90
5324;DHT22;2684;48.154;11.538;2022-08-06T05:21:07;16.60;99.90
5324;DHT22;2684;48.154;11.538;2022-08-06T05:23:39;16.60;99.90
5324;DHT22;2684;48.154;11.538;2022-08-06T05:26:07;16.60;99.90
5324;DHT22;2684;48.154;11.538;2022-08-06T05:28:34;16.60;99.90
5324;DHT22;2684;48.154;11.538;2022-08-06T05:31:06;16.50;99.90
5324;DHT22;2684;48.154;11.538;2022-08-06T05:33:34;16.40;99.90
5324;DHT22;2684;48.154;11.538;2022-08-06T05:36:04;16.40;99.90
5324;DHT22;2684;48.154;11.538;2022-08-06T05:38:32;16.40;99.90
5324;DHT22;2684;48.154;11.538;2022-08-06T05:40:59;16.40;99.90
5324;DHT22;2684;48.154;11.538;2022-08-06T05:43:26;16.30;99.90
5324;DHT22;2684;48.154;11.538;2022-08-06T05:45:57;16.20;99.90
5324;DHT22;2684;48.154;11.538;2022-08-06T05:48:29;16.20;99.90
5324;DHT22;2684;48.154;11.538;2022-08-06T05:51:01;16.20;99.90
5324;DHT22;2684;48.154;11.538;2022-08-06T05:53:30;16.20;99.90
5324;DHT22;2684;48.154;11.538;2022-08-06T05:56:02;16.10;99.90
5324;DHT22;2684;48.154;11.538;2022-08-06T05:58:39;16.00;99.90
5324;DHT22;2684;48.154;11.538;2022-08-06T06:01:08;15.80;99.90
5324;DHT22;2684;48.154;11.538;2022-08-06T06:03:39;15.70;99.90
5324;DHT22;2684;48.154;11.538;2022-08-06T06:06:06;15.70;99.90
5324;DHT22;2684;48.154;11.538;2022-08-06T06:08:35;15.60;99.90
5324;DHT22;2684;48.154;11.538;2022-08-06T06:11:04;15.60;99.90
5324;DHT22;2684;48.154;11.538;2022-08-06T06:13:33;15.50;99.90
5324;DHT22;2684;48.154;11.538;2022-08-06T06:16:06;15.50;99.90
5324;DHT22;2684;48.154;11.538;2022-08-06T06:18:54;15.60;99.90
5324;DHT22;2684;48.154;11.538;2022-08-06T06:21:32;15.60;99.90
5324;DHT22;2684;48.154;11.538;2022-08-06T06:24:06;15.50;99.90
5324;DHT22;2684;48.154;11.538;2022-08-06T06:26:42;15.50;99.90
5324;DHT22;2684;48.154;11.538;2022-08-06T06:29:15;15.50;99.90
5324;DHT22;2684;48.154;11.538;2022-08-06T06:31:51;15.40;99.90
5324;DHT22;2684;48.154;11.538;2022-08-06T06:34:33;15.40;99.90
5324;DHT22;2684;48.154;11.538;2022-08-06T06:37:09;15.40;99.90
5324;DHT22;2684;48.154;11.538;2022-08-06T06:39:41;15.30;99.90
5324;DHT22;2684;48.154;11.538;2022-08-06T06:42:22;15.40;99.90
5324;DHT22;2684;48.154;11.538;2022-08-06T06:44:57;15.40;99.90
5324;DHT22;2684;48.154;11.538;2022-08-06T06:47:30;15.40;99.90
5324;DHT22;2684;48.154;11.538;2022-08-06T06:50:04;15.30;99.90
5324;DHT22;2684;48.154;11.538;2022-08-06T06:52:35;15.30;99.90
5324;DHT22;2684;48.154;11.538;2022-08-06T06:55:08;15.30;99.90
5324;DHT22;2684;48.154;11.538;2022-08-06T06:57:41;15.30;99.90
5324;DHT22;2684;48.154;11.538;2022-08-06T07:00:11;15.40;99.90
5324;DHT22;2684;48.154;11.538;2022-08-06T07:02:39;15.40;99.90
5324;DHT22;2684;48.154;11.538;2022-08-06T07:05:10;15.40;99.90
5324;DHT22;2684;48.154;11.538;2022-08-06T07:07:40;15.30;99.90
5324;DHT22;2684;48.154;11.538;2022-08-06T07:10:11;15.30;99.90
5324;DHT22;2684;48.154;11.538;2022-08-06T07:12:40;15.40;99.90
5324;DHT22;2684;48.154;11.538;2022-08-06T07:15:09;15.40;99.90
5324;DHT22;2684;48.154;11.538;2022-08-06T07:17:37;15.40;99.90
5324;DHT22;2684;48.154;11.538;2022-08-06T07:20:09;15.30;99.90
5324;DHT22;2684;48.154;11.538;2022-08-06T07:22:40;15.30;99.90
5324;DHT22;2684;48.154;11.538;2022-08-06T07:25:10;15.30;99.90
5324;DHT22;2684;48.154;11.538;2022-08-06T07:27:40;15.30;99.90
5324;DHT22;2684;48.154;11.538;2022-08-06T07:30:10;15.30;99.90
5324;DHT22;2684;48.154;11.538;2022-08-06T07:32:38;15.30;99.90
5324;DHT22;2684;48.154;11.538;2022-08-06T07:35:07;15.40;99.90
5324;DHT22;2684;48.154;11.538;2022-08-06T07:37:37;15.30;99.90
5324;DHT22;2684;48.154;11.538;2022-08-06T07:40:09;15.20;99.90
5324;DHT22;2684;48.154;11.538;2022-08-06T07:42:38;15.30;99.90
5324;DHT22;2684;48.154;11.538;2022-08-06T07:45:08;15.30;99.90
5324;DHT22;2684;48.154;11.538;2022-08-06T07:47:41;15.40;99.90
5324;DHT22;2684;48.154;11.538;2022-08-06T07:50:11;15.40;99.90
5324;DHT22;2684;48.154;11.538;2022-08-06T07:52:42;15.50;99.90
5324;DHT22;2684;48.154;11.538;2022-08-06T07:55:10;15.50;99.90
5324;DHT22;2684;48.154;11.538;2022-08-06T07:57:37;15.40;99.90
5324;DHT22;2684;48.154;11.538;2022-08-06T08:00:06;15.40;99.90
5324;DHT22;2684;48.154;11.538;2022-08-06T08:02:34;15.40;99.90
5324;DHT22;2684;48.154;11.538;2022-08-06T08:05:02;15.40;99.90
5324;DHT22;2684;48.154;11.538;2022-08-06T08:07:48;15.50;99.90
5324;DHT22;2684;48.154;11.538;2022-08-06T08:10:17;15.50;99.90
5324;DHT22;2684;48.154;11.538;2022-08-06T08:12:46;15.60;99.90
5324;DHT22;2684;48.154;11.538;2022-08-06T08:15:14;15.60;99.90
5324;DHT22;2684;48.154;11.538;2022-08-06T08:17:41;15.70;99.90
5324;DHT22;2684;48.154;11.538;2022-08-06T08:20:09;15.80;99.90
5324;DHT22;2684;48.154;11.538;2022-08-06T08:22:38;15.80;99.90
5324;DHT22;2684;48.154;11.538;2022-08-06T08:25:08;15.80;99.90
5324;DHT22;2684;48.154;11.538;2022-08-06T08:27:35;15.90;99.90
5324;DHT22;2684;48.154;11.538;2022-08-06T08:30:02;15.90;99.90
5324;DHT22;2684;48.154;11.538;2022-08-06T08:32:29;15.90;99.90
5324;DHT22;2684;48.154;11.538;2022-08-06T08:34:56;16.00;99.90
5324;DHT22;2684;48.154;11.538;2022-08-06T08:37:24;16.10;99.90
5324;DHT22;2684;48.154;11.538;2022-08-06T08:39:52;16.10;99.90
5324;DHT22;2684;48.154;11.538;2022-08-06T08:42:26;16.20;99.90
5324;DHT22;2684;48.154;11.538;2022-08-06T08:44:55;16.30;99.90
5324;DHT22;2684;48.154;11.538;2022-08-06T08:47:23;16.20;99.90
5324;DHT22;2684;48.154;11.538;2022-08-06T08:49:52;16.30;99.90
5324;DHT22;2684;48.154;11.538;2022-08-06T08:52:25;16.30;99.90
5324;DHT22;2684;48.154;11.538;2022-08-06T08:54:55;16.40;99.90
5324;DHT22;2684;48.154;11.538;2022-08-06T08:57:26;16.40;99.90
5324;DHT22;2684;48.154;11.538;2022-08-06T08:59:54;16.40;99.90
5324;DHT22;2684;48.154;11.538;2022-08-06T09:02:21;16.40;99.90
5324;DHT22;2684;48.154;11.538;2022-08-06T09:04:49;16.40;99.90
5324;DHT22;2684;48.154;11.538;2022-08-06T09:07:16;16.40;99.90
5324;DHT22;2684;48.154;11.538;2022-08-06T09:09:43;16.30;99.90
5324;DHT22;2684;48.154;11.538;2022-08-06T09:12:10;16.40;99.90
5324;DHT22;2684;48.154;11.538;2022-08-06T09:14:39;16.30;99.90
5324;DHT22;2684;48.154;11.538;2022-08-06T09:17:09;16.40;99.90
5324;DHT22;2684;48.154;11.538;2022-08-06T09:19:36;16.40;99.90
5324;DHT22;2684;48.154;11.538;2022-08-06T09:22:03;16.50;99.90
5324;DHT22;2684;48.154;11.538;2022-08-06T09:24:31;16.50;99.90
5324;DHT22;2684;48.154;11.538;2022-08-06T09:27:02;16.40;99.90
5324;DHT22;2684;48.154;11.538;2022-08-06T09:29:29;16.50;99.90
5324;DHT22;2684;48.154;11.538;2022-08-06T09:31:57;16.50;99.90
5324;DHT22;2684;48.154;11.538;2022-08-06T09:34:32;16.40;99.90
5324;DHT22;2684;48.154;11.538;2022-08-06T09:36:59;16.40;99.90
5324;DHT22;2684;48.154;11.538;2022-08-06T09:39:33;16.40;99.90
5324;DHT22;2684;48.154;11.538;2022-08-06T09:42:05;16.50;99.90
5324;DHT22;2684;48.154;11.538;2022-08-06T09:44:32;16.50;99.90
5324;DHT22;2684;48.154;11.538;2022-08-06T09:47:01;16.60;99.90
5324;DHT22;2684;48.154;11.538;2022-08-06T09:49:43;16.60;99.90
5324;DHT22;2684;48.154;11.538;2022-08-06T09:52:12;16.50;99.90
5324;DHT22;2684;48.154;11.538;2022-08-06T09:54:39;16.50;99.90
5324;DHT22;2684;48.154;11.538;2022-08-06T09:57:06;16.50;99.90
5324;DHT22;2684;48.154;11.538;2022-08-06T09:59:42;16.60;99.90
5324;DHT22;2684;48.154;11.538;2022-08-06T10:02:14;16.70;99.90
5324;DHT22;2684;48.154;11.538;2022-08-06T10:04:41;16.80;99.90
5324;DHT22;2684;48.154;11.538;2022-08-06T10:07:08;17.00;99.90
5324;DHT22;2684;48.154;11.538;2022-08-06T10:09:35;17.10;99.90
5324;DHT22;2684;48.154;11.538;2022-08-06T10:12:16;17.30;99.90
5324;DHT22;2684;48.154;11.538;2022-08-06T10:14:43;17.30;99.90
5324;DHT22;2684;48.154;11.538;2022-08-06T10:17:11;17.40;99.90
5324;DHT22;2684;48.154;11.538;2022-08-06T10:19:41;17.60;99.90
5324;DHT22;2684;48.154;11.538;2022-08-06T10:22:10;17.60;99.90
5324;DHT22;2684;48.154;11.538;2022-08-06T10:24:40;17.80;99.90
5324;DHT22;2684;48.154;11.538;2022-08-06T10:27:09;18.20;99.90
5324;DHT22;2684;48.154;11.538;2022-08-06T10:29:40;18.20;99.90
5324;DHT22;2684;48.154;11.538;2022-08-06T10:32:09;18.20;99.90
5324;DHT22;2684;48.154;11.538;2022-08-06T10:34:39;17.90;99.90
5324;DHT22;2684;48.154;11.538;2022-08-06T10:37:10;17.70;99.90
5324;DHT22;2684;48.154;11.538;2022-08-06T10:39:42;17.90;99.90
5324;DHT22;2684;48.154;11.538;2022-08-06T10:42:12;18.00;99.90
5324;DHT22;2684;48.154;11.538;2022-08-06T10:44:40;18.00;99.90
5324;DHT22;2684;48.154;11.538;2022-08-06T10:47:08;18.00;99.90
5324;DHT22;2684;48.154;11.538;2022-08-06T10:49:35;17.90;99.90
5324;DHT22;2684;48.154;11.538;2022-08-06T10:52:04;17.80;99.90
5324;DHT22;2684;48.154;11.538;2022-08-06T10:54:31;17.90;99.90
5324;DHT22;2684;48.154;11.538;2022-08-06T10:56:58;18.00;99.90
5324;DHT22;2684;48.154;11.538;2022-08-06T10:59:25;17.90;99.90
5324;DHT22;2684;48.154;11.538;2022-08-06T11:01:57;18.10;99.90
5324;DHT22;2684;48.154;11.538;2022-08-06T11:04:37;18.40;99.90
5324;DHT22;2684;48.154;11.538;2022-08-06T11:10:22;18.30;99.90
5324;DHT22;2684;48.154;11.538;2022-08-06T11:12:56;18.40;99.90
5324;DHT22;2684;48.154;11.538;2022-08-06T11:15:24;18.20;99.90
5324;DHT22;2684;48.154;11.538;2022-08-06T11:17:55;18.20;99.90
5324;DHT22;2684;48.154;11.538;2022-08-06T11:20:39;18.30;99.90
5324;DHT22;2684;48.154;11.538;2022-08-06T11:23:24;18.30;99.90
5324;DHT22;2684;48.154;11.538;2022-08-06T11:25:54;18.30;99.90
5324;DHT22;2684;48.154;11.538;2022-08-06T11:28:58;18.30;99.90
5324;DHT22;2684;48.154;11.538;2022-08-06T11:31:31;18.40;99.90
5324;DHT22;2684;48.154;11.538;2022-08-06T11:34:00;18.50;99.90
5324;DHT22;2684;48.154;11.538;2022-08-06T11:36:28;18.70;99.90
5324;DHT22;2684;48.154;11.538;2022-08-06T11:39:09;18.80;99.90
5324;DHT22;2684;48.154;11.538;2022-08-06T11:45:00;18.60;99.90
5324;DHT22;2684;48.154;11.538;2022-08-06T11:47:28;18.70;99.90
5324;DHT22;2684;48.154;11.538;2022-08-06T11:49:54;18.60;99.90
5324;DHT22;2684;48.154;11.538;2022-08-06T11:52:40;18.70;99.90
5324;DHT22;2684;48.154;11.538;2022-08-06T11:55:14;18.80;99.90
5324;DHT22;2684;48.154;11.538;2022-08-06T11:57:42;18.90;99.90
5324;DHT22;2684;48.154;11.538;2022-08-06T12:00:15;19.10;99.90
5324;DHT22;2684;48.154;11.538;2022-08-06T12:02:56;19.00;99.90
5324;DHT22;2684;48.154;11.538;2022-08-06T12:05:39;18.90;99.90
5324;DHT22;2684;48.154;11.538;2022-08-06T12:08:16;19.00;99.90
5324;DHT22;2684;48.154;11.538;2022-08-06T12:13:46;19.00;99.90
5324;DHT22;2684;48.154;11.538;2022-08-06T12:16:33;19.00;99.90
5324;DHT22;2684;48.154;11.538;2022-08-06T12:19:00;19.10;99.90
5324;DHT22;2684;48.154;11.538;2022-08-06T12:21:28;19.20;99.90
5324;DHT22;2684;48.154;11.538;2022-08-06T12:23:56;19.20;99.90
5324;DHT22;2684;48.154;11.538;2022-08-06T12:26:23;19.10;99.90
5324;DHT22;2684;48.154;11.538;2022-08-06T12:28:51;19.40;99.90
5324;DHT22;2684;48.154;11.538;2022-08-06T12:31:38;19.50;99.90
5324;DHT22;2684;48.154;11.538;2022-08-06T12:34:06;19.50;99.90
5324;DHT22;2684;48.154;11.538;2022-08-06T12:36:34;19.60;99.90
5324;DHT22;2684;48.154;11.538;2022-08-06T12:39:05;19.90;99.90
5324;DHT22;2684;48.154;11.538;2022-08-06T12:41:37;19.90;99.90
5324;DHT22;2684;48.154;11.538;2022-08-06T12:44:09;20.00;99.90
5324;DHT22;2684;48.154;11.538;2022-08-06T12:46:36;20.00;99.90
5324;DHT22;2684;48.154;11.538;2022-08-06T12:49:04;19.90;99.90
5324;DHT22;2684;48.154;11.538;2022-08-06T12:51:34;19.90;99.90
5324;DHT22;2684;48.154;11.538;2022-08-06T12:54:04;20.00;99.90
5324;DHT22;2684;48.154;11.538;2022-08-06T12:56:36;20.00;99.90
5324;DHT22;2684;48.154;11.538;2022-08-06T12:59:11;19.90;99.90
5324;DHT22;2684;48.154;11.538;2022-08-06T13:01:43;19.90;99.90
5324;DHT22;2684;48.154;11.538;2022-08-06T13:04:13;20.00;99.90
5324;DHT22;2684;48.154;11.538;2022-08-06T13:06:41;20.00;99.90
5324;DHT22;2684;48.154;11.538;2022-08-06T13:09:09;20.10;99.90
5324;DHT22;2684;48.154;11.538;2022-08-06T13:11:36;20.20;99.90
5324;DHT22;2684;48.154;11.538;2022-08-06T13:14:10;20.20;99.90
5324;DHT22;2684;48.154;11.538;2022-08-06T13:16:40;20.30;99.90
5324;DHT22;2684;48.154;11.538;2022-08-06T13:19:09;20.20;99.90
5324;DHT22;2684;48.154;11.538;2022-08-06T13:21:36;19.90;99.90
5324;DHT22;2684;48.154;11.538;2022-08-06T13:24:05;19.70;99.90
5324;DHT22;2684;48.154;11.538;2022-08-06T13:26:46;19.50;99.90
5324;DHT22;2684;48.154;11.538;2022-08-06T13:29:16;19.60;99.90
5324;DHT22;2684;48.154;11.538;2022-08-06T13:31:45;19.80;99.90
5324;DHT22;2684;48.154;11.538;2022-08-06T13:34:15;20.00;99.90
5324;DHT22;2684;48.154;11.538;2022-08-06T13:36:53;20.10;99.90
5324;DHT22;2684;48.154;11.538;2022-08-06T13:39:25;20.30;99.90
5324;DHT22;2684;48.154;11.538;2022-08-06T13:42:06;20.20;99.90
5324;DHT22;2684;48.154;11.538;2022-08-06T13:44:36;20.20;99.90
5324;DHT22;2684;48.154;11.538;2022-08-06T13:47:04;20.30;99.90
5324;DHT22;2684;48.154;11.538;2022-08-06T13:49:31;20.30;99.90
5324;DHT22;2684;48.154;11.538;2022-08-06T13:51:59;20.10;99.90
5324;DHT22;2684;48.154;11.538;2022-08-06T13:54:27;20.10;99.90
5324;DHT22;2684;48.154;11.538;2022-08-06T13:56:56;20.10;99.90
5324;DHT22;2684;48.154;11.538;2022-08-06T13:59:25;20.20;99.90
5324;DHT22;2684;48.154;11.538;2022-08-06T14:01:57;20.20;99.90
5324;DHT22;2684;48.154;11.538;2022-08-06T14:04:24;20.30;99.90
5324;DHT22;2684;48.154;11.538;2022-08-06T14:06:54;20.40;99.90
5324;DHT22;2684;48.154;11.538;2022-08-06T14:09:23;20.70;99.90
5324;DHT22;2684;48.154;11.538;2022-08-06T14:11:53;21.10;99.90
5324;DHT22;2684;48.154;11.538;2022-08-06T14:14:22;21.30;99.90
5324;DHT22;2684;48.154;11.538;2022-08-06T14:16:49;21.60;99.90
5324;DHT22;2684;48.154;11.538;2022-08-06T14:19:18;22.00;99.90
5324;DHT22;2684;48.154;11.538;2022-08-06T14:21:45;22.10;99.90
5324;DHT22;2684;48.154;11.538;2022-08-06T14:24:12;22.40;99.90
5324;DHT22;2684;48.154;11.538;2022-08-06T14:26:39;22.30;99.90
5324;DHT22;2684;48.154;11.538;2022-08-06T14:29:07;22.30;99.90
5324;DHT22;2684;48.154;11.538;2022-08-06T14:31:33;22.70;99.90
5324;DHT22;2684;48.154;11.538;2022-08-06T14:34:00;23.40;99.90
5324;DHT22;2684;48.154;11.538;2022-08-06T14:36:30;24.20;99.90
5324;DHT22;2684;48.154;11.538;2022-08-06T14:38:57;24.00;99.90
5324;DHT22;2684;48.154;11.538;2022-08-06T14:41:24;23.50;99.90
5324;DHT22;2684;48.154;11.538;2022-08-06T14:44:09;23.30;99.90
5324;DHT22;2684;48.154;11.538;2022-08-06T14:46:54;23.40;99.90
5324;DHT22;2684;48.154;11.538;2022-08-06T14:49:21;23.60;99.90
5324;DHT22;2684;48.154;11.538;2022-08-06T14:51:51;23.70;99.90
5324;DHT22;2684;48.154;11.538;2022-08-06T14:54:18;23.40;99.90
5324;DHT22;2684;48.154;11.538;2022-08-06T14:56:46;23.40;99.90
5324;DHT22;2684;48.154;11.538;2022-08-06T14:59:13;23.40;99.90
5324;DHT22;2684;48.154;11.538;2022-08-06T15:01:40;23.30;99.90
5324;DHT22;2684;48.154;11.538;2022-08-06T15:04:07;23.50;99.90
5324;DHT22;2684;48.154;11.538;2022-08-06T15:06:34;23.80;99.90
5324;DHT22;2684;48.154;11.538;2022-08-06T15:09:03;23.30;99.90
5324;DHT22;2684;48.154;11.538;2022-08-06T15:11:31;22.80;99.90
5324;DHT22;2684;48.154;11.538;2022-08-06T15:13:58;22.50;99.90
5324;DHT22;2684;48.154;11.538;2022-08-06T15:16:25;22.30;99.90
5324;DHT22;2684;48.154;11.538;2022-08-06T15:18:53;22.20;99.90
5324;DHT22;2684;48.154;11.538;2022-08-06T15:21:20;22.30;99.90
5324;DHT22;2684;48.154;11.538;2022-08-06T15:23:48;22.50;99.90
5324;DHT22;2684;48.154;11.538;2022-08-06T15:26:18;22.60;99.90
5324;DHT22;2684;48.154;11.538;2022-08-06T15:28:46;22.60;99.90
5324;DHT22;2684;48.154;11.538;2022-08-06T15:31:13;22.50;99.90
5324;DHT22;2684;48.154;11.538;2022-08-06T15:33:40;22.50;99.90
5324;DHT22;2684;48.154;11.538;2022-08-06T15:36:07;22.50;99.90
5324;DHT22;2684;48.154;11.538;2022-08-06T15:38:34;22.40;99.90
5324;DHT22;2684;48.154;11.538;2022-08-06T15:41:03;22.40;99.90
5324;DHT22;2684;48.154;11.538;2022-08-06T15:43:32;22.40;99.90
5324;DHT22;2684;48.154;11.538;2022-08-06T15:46:00;22.40;99.90
5324;DHT22;2684;48.154;11.538;2022-08-06T15:48:29;22.30;99.90
5324;DHT22;2684;48.154;11.538;2022-08-06T15:50:56;22.30;99.90
5324;DHT22;2684;48.154;11.538;2022-08-06T15:53:25;22.20;99.90
5324;DHT22;2684;48.154;11.538;2022-08-06T15:55:52;22.00;99.90
5324;DHT22;2684;48.154;11.538;2022-08-06T15:58:19;22.00;99.90
5324;DHT22;2684;48.154;11.538;2022-08-06T16:00:49;21.90;99.90
5324;DHT22;2684;48.154;11.538;2022-08-06T16:03:16;21.70;99.90
5324;DHT22;2684;48.154;11.538;2022-08-06T16:05:45;21.80;99.90
5324;DHT22;2684;48.154;11.538;2022-08-06T16:08:13;22.00;99.90
5324;DHT22;2684;48.154;11.538;2022-08-06T16:10:41;22.10;99.90
5324;DHT22;2684;48.154;11.538;2022-08-06T16:13:10;22.10;99.90